createdAt,value
2022-09-28T00:00:02.958Z,99.99
2022-09-28T00:01:02.955Z,99.99
2022-09-28T00:02:03.069Z,99.99
2022-09-28T00:03:02.957Z,99.99
2022-09-28T00:04:02.905Z,99.99
2022-09-28T00:05:02.897Z,99.99
2022-09-28T00:06:02.880Z,99.99
2022-09-28T00:07:02.866Z,99.99
2022-09-28T00:08:02.867Z,99.99
2022-09-28T00:09:02.841Z,99.99
2022-09-28T00:10:02.855Z,99.99
2022-09-28T00:11:02.815Z,99.99
2022-09-28T00:12:02.800Z,99.99
2022-09-28T00:13:02.789Z,99.99
2022-09-28T00:14:02.775Z,99.99
2022-09-28T00:15:02.767Z,99.99
2022-09-28T00:16:02.875Z,99.99
2022-09-28T00:17:02.738Z,99.99
2022-09-28T00:18:02.722Z,99.99
2022-09-28T00:19:02.924Z,99.99
2022-09-28T00:20:02.702Z,99.99
2022-09-28T00:21:02.683Z,99.99
2022-09-28T00:22:02.668Z,99.99
2022-09-28T00:23:02.657Z,99.99
2022-09-28T00:24:02.643Z,99.99
2022-09-28T00:25:02.639Z,99.99
2022-09-28T00:26:03.102Z,99.99
2022-09-28T00:27:02.603Z,99.99
2022-09-28T00:28:02.588Z,99.99
2022-09-28T00:29:02.575Z,99.99
2022-09-28T00:30:02.567Z,99.99
2022-09-28T00:31:02.644Z,99.99
2022-09-28T00:32:02.694Z,99.99
2022-09-28T00:33:02.528Z,99.99
2022-09-28T00:34:02.510Z,99.99
2022-09-28T00:35:02.487Z,99.99
2022-09-28T00:36:02.483Z,99.99
2022-09-28T00:37:02.469Z,99.99
2022-09-28T00:38:02.460Z,99.99
2022-09-28T00:39:02.445Z,99.99
2022-09-28T00:40:02.432Z,99.99
2022-09-28T00:41:02.419Z,99.99
2022-09-28T00:42:02.435Z,99.99
2022-09-28T00:43:02.393Z,99.99
2022-09-28T00:44:02.385Z,99.99
2022-09-28T00:45:02.369Z,99.99
2022-09-28T00:46:02.442Z,99.99
2022-09-28T00:47:02.348Z,99.99
2022-09-28T00:48:02.330Z,99.99
2022-09-28T00:49:02.314Z,99.99
2022-09-28T00:50:02.306Z,99.99
2022-09-28T00:51:02.296Z,99.99
2022-09-28T00:52:02.277Z,99.99
2022-09-28T00:53:02.260Z,99.99
2022-09-28T00:54:02.253Z,99.99
2022-09-28T00:55:02.234Z,99.99
2022-09-28T00:56:02.224Z,99.99
2022-09-28T00:57:02.209Z,99.99
2022-09-28T00:58:02.227Z,99.99
2022-09-28T00:59:02.183Z,99.99
2022-09-28T01:00:02.174Z,99.99
2022-09-28T01:01:02.245Z,99.99
2022-09-28T01:02:02.209Z,99.99
2022-09-28T01:03:02.132Z,99.99
2022-09-28T01:04:02.116Z,99.99
2022-09-28T01:05:02.103Z,99.99
2022-09-28T01:06:02.093Z,99.99
2022-09-28T01:07:02.079Z,99.99
2022-09-28T01:08:02.064Z,99.99
2022-09-28T01:09:02.056Z,99.99
2022-09-28T01:10:02.038Z,99.99
2022-09-28T01:11:02.031Z,99.99
2022-09-28T01:12:02.017Z,99.99
2022-09-28T01:13:02.004Z,99.99
2022-09-28T01:14:02.013Z,99.99
2022-09-28T01:15:01.975Z,99.99
2022-09-28T01:16:02.018Z,99.99
2022-09-28T01:17:01.948Z,99.99
2022-09-28T01:18:01.932Z,99.99
2022-09-28T01:19:01.921Z,99.99
2022-09-28T01:20:01.907Z,99.99
2022-09-28T01:21:02.095Z,99.99
2022-09-28T01:22:01.881Z,99.99
2022-09-28T01:23:01.868Z,99.99
2022-09-28T01:24:01.855Z,99.99
2022-09-28T01:25:01.843Z,99.99
2022-09-28T01:26:01.828Z,99.99
2022-09-28T01:27:01.815Z,99.99
2022-09-28T01:28:01.806Z,99.99
2022-09-28T01:29:01.791Z,99.99
2022-09-28T01:30:01.799Z,99.99
2022-09-28T01:31:01.761Z,99.99
2022-09-28T01:32:01.863Z,99.99
2022-09-28T01:33:01.739Z,99.99
2022-09-28T01:34:01.723Z,99.99
2022-09-28T01:35:01.719Z,99.99
2022-09-28T01:36:01.698Z,99.99
2022-09-28T01:37:01.694Z,99.99
2022-09-28T01:38:01.668Z,99.99
2022-09-28T01:39:01.659Z,99.99
2022-09-28T01:40:01.659Z,99.99
2022-09-28T01:41:01.627Z,99.99
2022-09-28T01:42:01.619Z,99.99
2022-09-28T01:43:01.604Z,99.99
2022-09-28T01:44:01.591Z,99.99
2022-09-28T01:45:01.581Z,99.99
2022-09-28T01:46:01.657Z,99.99
2022-09-28T01:47:01.559Z,99.99
2022-09-28T01:48:01.566Z,99.99
2022-09-28T01:49:01.534Z,99.99
2022-09-28T01:50:01.537Z,99.99
2022-09-28T01:51:01.509Z,99.99
2022-09-28T01:52:01.486Z,99.99
2022-09-28T01:53:01.480Z,99.99
2022-09-28T01:54:01.459Z,99.99
2022-09-28T01:55:01.446Z,99.99
2022-09-28T01:56:01.437Z,99.99
2022-09-28T01:57:01.425Z,99.99
2022-09-28T01:58:01.408Z,99.99
2022-09-28T01:59:01.392Z,99.99
2022-09-28T02:00:01.383Z,99.99
2022-09-28T02:01:01.419Z,99.99
2022-09-28T02:02:01.425Z,99.99
2022-09-28T02:03:01.342Z,99.99
2022-09-28T02:04:01.329Z,99.99
2022-09-28T02:05:01.319Z,99.99
2022-09-28T02:06:01.297Z,99.99
2022-09-28T02:07:01.291Z,99.99
2022-09-28T02:08:01.275Z,99.99
2022-09-28T02:09:01.268Z,99.99
2022-09-28T02:10:01.250Z,99.99
2022-09-28T02:11:01.238Z,99.99
2022-09-28T02:12:01.224Z,99.99
2022-09-28T02:13:01.208Z,99.99
2022-09-28T02:14:01.204Z,99.99
2022-09-28T02:15:01.182Z,99.99
2022-09-28T02:16:01.242Z,99.99
2022-09-28T02:17:01.158Z,99.99
2022-09-28T02:18:01.169Z,99.99
2022-09-28T02:19:01.129Z,99.99
2022-09-28T02:20:01.116Z,99.99
2022-09-28T02:21:01.106Z,99.99
2022-09-28T02:22:01.094Z,99.99
2022-09-28T02:23:01.083Z,99.99
2022-09-28T02:24:01.073Z,99.99
2022-09-28T02:25:01.052Z,99.99
2022-09-28T02:26:01.041Z,99.99
2022-09-28T02:27:01.032Z,99.99
2022-09-28T02:28:01.017Z,99.99
2022-09-28T02:29:01.001Z,99.99
2022-09-28T02:30:00.989Z,99.99
2022-09-28T02:31:00.976Z,99.99
2022-09-28T02:32:00.970Z,99.99
2022-09-28T02:33:00.945Z,99.99
2022-09-28T02:34:00.961Z,99.99
2022-09-28T02:35:00.924Z,99.99
2022-09-28T02:36:00.906Z,99.99
2022-09-28T02:37:00.894Z,99.99
2022-09-28T02:38:00.885Z,99.99
2022-09-28T02:39:00.872Z,99.99
2022-09-28T02:40:00.869Z,99.99
2022-09-28T02:41:00.924Z,99.99
2022-09-28T02:42:00.831Z,99.99
2022-09-28T02:43:00.814Z,99.99
2022-09-28T02:44:00.800Z,99.99
2022-09-28T02:45:00.794Z,99.99
2022-09-28T02:46:00.818Z,99.99
2022-09-28T02:47:00.765Z,99.99
2022-09-28T02:48:00.750Z,99.99
2022-09-28T02:49:20.464Z,99.99
2022-09-28T02:50:01.786Z,99.99
2022-09-28T02:51:00.709Z,99.99
2022-09-28T02:52:00.703Z,99.99
2022-09-28T02:53:00.718Z,99.99
2022-09-28T02:54:00.673Z,99.99
2022-09-28T02:55:00.656Z,99.99
2022-09-28T02:56:00.643Z,99.99
2022-09-28T02:57:00.636Z,99.99
2022-09-28T02:58:00.621Z,99.99
2022-09-28T02:59:00.605Z,99.99
2022-09-28T03:00:00.592Z,99.99
2022-09-28T03:01:00.636Z,99.99
2022-09-28T03:02:00.600Z,99.99
2022-09-28T03:03:00.554Z,99.99
2022-09-28T03:04:00.540Z,99.99
2022-09-28T03:05:00.525Z,99.99
2022-09-28T03:06:00.541Z,99.99
2022-09-28T03:07:00.507Z,99.99
2022-09-28T03:08:00.485Z,99.99
2022-09-28T03:09:00.476Z,99.99
2022-09-28T03:10:00.460Z,99.99
2022-09-28T03:11:00.451Z,99.99
2022-09-28T03:12:00.436Z,99.99
2022-09-28T03:13:00.422Z,99.99
2022-09-28T03:14:00.413Z,99.99
2022-09-28T03:15:00.399Z,99.99
2022-09-28T03:16:00.448Z,99.99
2022-09-28T03:17:00.371Z,99.99
2022-09-28T03:18:00.362Z,99.99
2022-09-28T03:19:00.343Z,99.99
2022-09-28T03:20:00.332Z,99.99
2022-09-28T03:21:00.318Z,99.99
2022-09-28T03:22:00.330Z,99.99
2022-09-28T03:23:23.259Z,99.99
2022-09-28T03:24:01.310Z,99.99
2022-09-28T03:25:00.266Z,99.99
2022-09-28T03:26:00.253Z,99.99
2022-09-28T03:27:00.239Z,99.99
2022-09-28T03:28:00.236Z,99.99
2022-09-28T03:29:00.217Z,99.99
2022-09-28T03:30:00.199Z,99.99
2022-09-28T03:31:00.186Z,99.99
2022-09-28T03:32:00.279Z,99.99
2022-09-28T03:33:00.164Z,99.99
2022-09-28T03:34:00.146Z,99.99
2022-09-28T03:35:00.135Z,99.99
2022-09-28T03:36:00.118Z,99.99
2022-09-28T03:37:00.106Z,99.99
2022-09-28T03:38:00.118Z,99.99
2022-09-28T03:39:00.089Z,99.99
2022-09-28T03:40:00.069Z,99.99
2022-09-28T03:41:00.228Z,99.99
2022-09-28T03:42:00.039Z,99.99
2022-09-28T03:43:00.029Z,99.99
2022-09-28T03:44:00.017Z,99.99
2022-09-28T03:45:00.000Z,99.99
2022-09-28T03:46:00.122Z,99.99
2022-09-28T03:46:59.987Z,99.99
2022-09-28T03:47:59.964Z,99.99
2022-09-28T03:48:59.948Z,99.99
2022-09-28T03:49:59.943Z,99.99
2022-09-28T03:50:59.924Z,99.99
2022-09-28T03:51:59.928Z,99.99
2022-09-28T03:52:59.897Z,99.99
2022-09-28T03:53:59.910Z,99.99
2022-09-28T03:54:59.874Z,99.99
2022-09-28T03:55:59.856Z,99.99
2022-09-28T03:56:59.844Z,99.99
2022-09-28T03:57:59.828Z,99.99
2022-09-28T03:58:59.819Z,99.99
2022-09-28T03:59:59.804Z,99.99
2022-09-28T04:00:59.873Z,99.99
2022-09-28T04:01:59.845Z,99.99
2022-09-28T04:02:59.766Z,99.99
2022-09-28T04:03:59.752Z,99.99
2022-09-28T04:04:59.739Z,99.99
2022-09-28T04:05:59.724Z,99.99
2022-09-28T04:06:59.710Z,99.99
2022-09-28T04:07:59.699Z,99.99
2022-09-28T04:08:59.685Z,99.99
2022-09-28T04:09:59.700Z,99.99
2022-09-28T04:10:59.662Z,99.99
2022-09-28T04:12:04.222Z,99.99
2022-09-28T04:12:59.636Z,99.99
2022-09-28T04:13:59.623Z,99.99
2022-09-28T04:14:59.632Z,99.99
2022-09-28T04:15:59.738Z,99.99
2022-09-28T04:16:59.593Z,99.99
2022-09-28T04:17:59.584Z,99.99
2022-09-28T04:18:59.554Z,99.99
2022-09-28T04:19:59.544Z,99.99
2022-09-28T04:20:59.527Z,99.99
2022-09-28T04:21:59.513Z,99.99
2022-09-28T04:22:59.502Z,99.99
2022-09-28T04:23:59.489Z,99.99
2022-09-28T04:24:59.472Z,99.99
2022-09-28T04:25:59.486Z,99.99
2022-09-28T04:26:59.450Z,99.99
2022-09-28T04:27:59.436Z,99.99
2022-09-28T04:29:04.045Z,99.99
2022-09-28T04:30:00.443Z,99.99
2022-09-28T04:30:59.395Z,99.99
2022-09-28T04:31:59.427Z,99.99
2022-09-28T04:32:59.371Z,99.99
2022-09-28T04:33:59.357Z,99.99
2022-09-28T04:34:59.344Z,99.99
2022-09-28T04:35:59.331Z,99.99
2022-09-28T04:36:59.319Z,99.99
2022-09-28T04:37:59.310Z,99.99
2022-09-28T04:38:59.296Z,99.99
2022-09-28T04:39:59.276Z,99.99
2022-09-28T04:40:59.311Z,99.99
2022-09-28T04:41:59.476Z,99.99
2022-09-28T04:42:59.438Z,99.99
2022-09-28T04:43:59.229Z,99.99
2022-09-28T04:44:59.212Z,99.99
2022-09-28T04:45:59.233Z,99.99
2022-09-28T04:47:04.218Z,99.99
2022-09-28T04:47:59.174Z,99.99
2022-09-28T04:48:59.166Z,99.99
2022-09-28T04:50:05.156Z,99.99
2022-09-28T04:50:59.136Z,99.99
2022-09-28T04:51:59.126Z,99.99
2022-09-28T04:52:59.111Z,99.99
2022-09-28T04:53:59.092Z,99.99
2022-09-28T04:54:59.088Z,99.99
2022-09-28T04:55:59.066Z,99.99
2022-09-28T04:56:59.062Z,99.99
2022-09-28T04:57:59.061Z,99.99
2022-09-28T04:58:59.031Z,99.99
2022-09-28T04:59:59.021Z,99.99
2022-09-28T05:00:59.120Z,99.99
2022-09-28T05:01:59.035Z,99.99
2022-09-28T05:02:58.978Z,99.99
2022-09-28T05:03:58.967Z,99.99
2022-09-28T05:04:58.951Z,99.99
2022-09-28T05:05:58.939Z,99.99
2022-09-28T05:06:58.924Z,99.99
2022-09-28T05:07:58.915Z,99.99
2022-09-28T05:08:58.902Z,99.99
2022-09-28T05:09:58.882Z,99.99
2022-09-28T05:10:58.873Z,99.99
2022-09-28T05:11:58.860Z,99.99
2022-09-28T05:12:58.844Z,99.99
2022-09-28T05:13:58.859Z,99.99
2022-09-28T05:14:58.818Z,99.99
2022-09-28T05:16:03.017Z,99.99
2022-09-28T05:16:59.875Z,99.99
2022-09-28T05:17:58.780Z,99.99
2022-09-28T05:18:58.771Z,99.99
2022-09-28T05:19:58.756Z,99.99
2022-09-28T05:20:58.742Z,99.99
2022-09-28T05:21:58.724Z,99.99
2022-09-28T05:22:58.717Z,99.99
2022-09-28T05:23:58.701Z,99.99
2022-09-28T05:24:58.690Z,99.99
2022-09-28T05:25:58.872Z,99.99
2022-09-28T05:26:58.661Z,99.99
2022-09-28T05:27:58.649Z,99.99
2022-09-28T05:28:58.640Z,99.99
2022-09-28T05:29:58.644Z,99.99
2022-09-28T05:30:58.610Z,99.99
2022-09-28T05:31:58.702Z,99.99
2022-09-28T05:32:58.780Z,99.99
2022-09-28T05:33:58.569Z,99.99
2022-09-28T05:34:58.566Z,99.99
2022-09-28T05:36:01.308Z,99.99
2022-09-28T05:36:58.536Z,99.99
2022-09-28T05:37:58.525Z,99.99
2022-09-28T05:38:58.502Z,99.99
2022-09-28T05:39:58.490Z,99.99
2022-09-28T05:40:59.724Z,99.99
2022-09-28T05:41:58.464Z,99.99
2022-09-28T05:42:58.453Z,99.99
2022-09-28T05:43:58.441Z,99.99
2022-09-28T05:44:58.426Z,99.99
2022-09-28T05:45:58.508Z,99.99
2022-09-28T05:46:58.394Z,99.99
2022-09-28T05:47:58.383Z,99.99
2022-09-28T05:48:58.384Z,99.99
2022-09-28T05:49:58.365Z,99.99
2022-09-28T05:50:58.344Z,99.99
2022-09-28T05:51:58.332Z,99.99
2022-09-28T05:52:58.322Z,99.99
2022-09-28T05:54:01.798Z,99.99
2022-09-28T05:54:59.326Z,99.99
2022-09-28T05:55:58.285Z,99.99
2022-09-28T05:56:58.276Z,99.99
2022-09-28T05:57:58.259Z,99.99
2022-09-28T05:58:58.244Z,99.99
2022-09-28T05:59:58.238Z,99.99
2022-09-28T06:00:58.297Z,99.99
2022-09-28T06:01:58.355Z,99.99
2022-09-28T06:02:58.191Z,99.99
2022-09-28T06:03:58.174Z,99.99
2022-09-28T06:04:58.161Z,99.99
2022-09-28T06:05:58.148Z,99.99
2022-09-28T06:06:58.141Z,99.99
2022-09-28T06:07:58.123Z,99.99
2022-09-28T06:08:58.115Z,99.99
2022-09-28T06:09:58.093Z,99.99
2022-09-28T06:10:58.281Z,99.99
2022-09-28T06:11:58.068Z,99.99
2022-09-28T06:12:58.058Z,99.99
2022-09-28T06:13:58.244Z,99.99
2022-09-28T06:14:58.030Z,99.99
2022-09-28T06:15:58.020Z,99.99
2022-09-28T06:16:58.036Z,99.99
2022-09-28T06:17:58.014Z,99.99
2022-09-28T06:18:57.977Z,99.99
2022-09-28T06:19:57.971Z,99.99
2022-09-28T06:20:57.953Z,99.99
2022-09-28T06:21:59.363Z,99.99
2022-09-28T06:22:57.924Z,99.99
2022-09-28T06:23:57.913Z,99.99
2022-09-28T06:24:57.905Z,99.99
2022-09-28T06:25:57.888Z,99.99
2022-09-28T06:26:57.876Z,99.99
2022-09-28T06:27:57.868Z,99.99
2022-09-28T06:28:57.851Z,99.99
2022-09-28T06:29:57.840Z,99.99
2022-09-28T06:30:57.864Z,99.99
2022-09-28T06:31:57.817Z,99.99
2022-09-28T06:32:57.811Z,99.99
2022-09-28T06:33:57.802Z,99.99
2022-09-28T06:34:57.771Z,99.99
2022-09-28T06:35:57.756Z,99.99
2022-09-28T06:36:57.740Z,99.99
2022-09-28T06:37:57.730Z,99.99
2022-09-28T06:38:57.718Z,99.99
2022-09-28T06:39:57.709Z,99.99
2022-09-28T06:40:57.999Z,99.99
2022-09-28T06:41:57.692Z,99.99
2022-09-28T06:42:57.658Z,99.99
2022-09-28T06:43:57.654Z,99.99
2022-09-28T06:44:57.643Z,99.99
2022-09-28T06:45:57.734Z,99.99
2022-09-28T06:46:57.609Z,99.99
2022-09-28T06:47:57.599Z,99.99
2022-09-28T06:48:57.587Z,99.99
2022-09-28T06:49:57.592Z,99.99
2022-09-28T06:50:57.558Z,99.99
2022-09-28T06:51:57.546Z,99.99
2022-09-28T06:52:57.528Z,99.99
2022-09-28T06:53:57.520Z,99.99
2022-09-28T06:54:57.508Z,99.99
2022-09-28T06:55:57.487Z,99.99
2022-09-28T06:56:57.488Z,99.99
2022-09-28T06:57:57.467Z,99.99
2022-09-28T06:58:57.458Z,99.99
2022-09-28T06:59:57.447Z,99.99
2022-09-28T07:00:57.470Z,99.99
2022-09-28T07:01:57.458Z,99.99
2022-09-28T07:02:57.401Z,99.99
2022-09-28T07:03:57.389Z,99.99
2022-09-28T07:04:57.372Z,99.99
2022-09-28T07:05:57.396Z,99.99
2022-09-28T07:06:57.352Z,99.99
2022-09-28T07:07:57.346Z,99.99
2022-09-28T07:09:09.724Z,99.99
2022-09-28T07:09:58.330Z,99.99
2022-09-28T07:10:57.288Z,99.99
2022-09-28T07:11:57.483Z,99.99
2022-09-28T07:12:57.274Z,99.99
2022-09-28T07:13:57.265Z,99.99
2022-09-28T07:14:57.271Z,99.99
2022-09-28T07:15:57.232Z,99.99
2022-09-28T07:17:12.264Z,99.99
2022-09-28T07:18:02.814Z,99.99
2022-09-28T07:18:57.191Z,99.99
2022-09-28T07:19:57.723Z,99.99
2022-09-28T07:20:57.171Z,99.99
2022-09-28T07:22:04.842Z,99.99
2022-09-28T07:23:06.515Z,99.99
2022-09-28T07:23:58.372Z,99.99
2022-09-28T07:24:57.106Z,99.99
2022-09-28T07:25:57.106Z,99.99
2022-09-28T07:26:57.080Z,99.99
2022-09-28T07:27:57.077Z,99.99
2022-09-28T07:28:57.062Z,99.99
2022-09-28T07:29:57.049Z,99.99
2022-09-28T07:30:57.150Z,99.99
2022-09-28T07:31:57.024Z,99.99
2022-09-28T07:32:57.013Z,99.99
2022-09-28T07:33:56.999Z,99.99
2022-09-28T07:34:58.935Z,99.99
2022-09-28T07:35:56.964Z,99.99
2022-09-28T07:36:56.955Z,99.99
2022-09-28T07:37:56.966Z,99.99
2022-09-28T07:38:56.939Z,99.99
2022-09-28T07:39:56.915Z,99.99
2022-09-28T07:40:57.005Z,99.99
2022-09-28T07:42:02.494Z,99.99
2022-09-28T07:42:57.911Z,99.99
2022-09-28T07:43:56.864Z,99.99
2022-09-28T07:44:56.861Z,99.99
2022-09-28T07:45:56.973Z,99.99
2022-09-28T07:46:56.823Z,99.99
2022-09-28T07:47:56.815Z,99.99
2022-09-28T07:48:56.796Z,99.99
2022-09-28T07:49:56.797Z,99.99
2022-09-28T07:50:56.782Z,99.99
2022-09-28T07:51:56.765Z,99.99
2022-09-28T07:52:56.749Z,99.99
2022-09-28T07:53:56.762Z,99.99
2022-09-28T07:54:56.721Z,99.99
2022-09-28T07:55:56.753Z,99.99
2022-09-28T07:56:56.695Z,99.99
2022-09-28T07:57:56.688Z,99.99
2022-09-28T07:58:56.669Z,99.99
2022-09-28T07:59:56.658Z,99.99
2022-09-28T08:00:56.715Z,99.99
2022-09-28T08:01:56.693Z,99.99
2022-09-28T08:02:56.624Z,99.99
2022-09-28T08:03:56.611Z,99.99
2022-09-28T08:04:56.593Z,99.99
2022-09-28T08:05:56.567Z,99.99
2022-09-28T08:06:56.555Z,99.99
2022-09-28T08:07:56.548Z,99.99
2022-09-28T08:08:56.745Z,99.99
2022-09-28T08:09:56.560Z,99.99
2022-09-28T08:11:56.497Z,99.99
2022-09-28T08:12:59.226Z,99.99
2022-09-28T08:13:56.467Z,99.99
2022-09-28T08:14:56.454Z,99.99
2022-09-28T08:15:56.441Z,99.99
2022-09-28T08:16:56.424Z,99.99
2022-09-28T08:18:00.491Z,99.99
2022-09-28T08:18:57.432Z,99.99
2022-09-28T08:19:56.397Z,99.99
2022-09-28T08:20:56.391Z,99.99
2022-09-28T08:21:56.562Z,99.99
2022-09-28T08:22:56.346Z,99.99
2022-09-28T08:23:56.337Z,99.99
2022-09-28T08:24:56.327Z,99.99
2022-09-28T08:25:56.335Z,99.99
2022-09-28T08:26:56.292Z,99.99
2022-09-28T08:27:56.276Z,99.99
2022-09-28T08:28:57.074Z,99.99
2022-09-28T08:29:56.256Z,99.99
2022-09-28T08:30:56.357Z,99.99
2022-09-28T08:31:59.544Z,99.99
2022-09-28T08:32:56.225Z,99.99
2022-09-28T08:33:56.206Z,99.99
2022-09-28T08:34:56.195Z,99.99
2022-09-28T08:35:56.178Z,99.99
2022-09-28T08:36:56.167Z,99.99
2022-09-28T08:37:56.147Z,99.99
2022-09-28T08:38:56.174Z,99.99
2022-09-28T08:39:56.125Z,99.99
2022-09-28T08:40:56.217Z,99.99
2022-09-28T08:41:56.123Z,99.99
2022-09-28T08:42:56.087Z,99.99
2022-09-28T08:43:56.267Z,99.99
2022-09-28T08:44:56.065Z,99.99
2022-09-28T08:45:56.094Z,99.99
2022-09-28T08:46:56.037Z,99.99
2022-09-28T08:47:56.024Z,99.99
2022-09-28T08:49:26.303Z,99.99
2022-09-28T08:49:57.037Z,99.99
2022-09-28T08:50:55.982Z,99.99
2022-09-28T08:51:55.975Z,99.99
2022-09-28T08:52:55.958Z,99.99
2022-09-28T08:53:55.952Z,99.99
2022-09-28T08:54:55.938Z,99.99
2022-09-28T08:55:55.968Z,99.99
2022-09-28T08:56:55.899Z,99.99
2022-09-28T08:57:55.915Z,99.99
2022-09-28T08:58:55.879Z,99.99
2022-09-28T08:59:55.866Z,99.99
2022-09-28T09:00:55.922Z,99.99
2022-09-28T09:01:57.927Z,99.99
2022-09-28T09:02:55.877Z,99.99
2022-09-28T09:03:55.807Z,99.99
2022-09-28T09:04:55.806Z,99.99
2022-09-28T09:05:55.783Z,99.99
2022-09-28T09:06:55.765Z,99.99
2022-09-28T09:07:55.759Z,99.82
2022-09-28T09:08:55.745Z,99.99
2022-09-28T09:09:55.730Z,99.99
2022-09-28T09:10:55.715Z,99.99
2022-09-28T09:11:55.713Z,99.99
2022-09-28T09:12:55.698Z,99.99
2022-09-28T09:13:55.696Z,99.93
2022-09-28T09:14:55.655Z,99.82
2022-09-28T09:15:55.650Z,99.93
2022-09-28T09:16:59.847Z,99.99
2022-09-28T09:17:55.623Z,99.99
2022-09-28T09:18:55.611Z,99.99
2022-09-28T09:19:55.597Z,99.99
2022-09-28T09:20:55.587Z,99.99
2022-09-28T09:21:55.573Z,99.99
2022-09-28T09:22:55.618Z,99.99
2022-09-28T09:23:55.545Z,99.99
2022-09-28T09:24:55.535Z,99.99
2022-09-28T09:25:55.520Z,99.99
2022-09-28T09:26:55.506Z,99.99
2022-09-28T09:27:55.497Z,99.99
2022-09-28T09:28:55.490Z,99.99
2022-09-28T09:29:55.490Z,99.99
2022-09-28T09:30:55.517Z,99.99
2022-09-28T09:31:55.441Z,99.99
2022-09-28T09:32:55.428Z,99.99
2022-09-28T09:33:55.418Z,99.99
2022-09-28T09:34:55.402Z,99.99
2022-09-28T09:35:55.393Z,99.99
2022-09-28T09:36:55.380Z,99.99
2022-09-28T09:37:58.505Z,99.99
2022-09-28T09:38:55.366Z,99.99
2022-09-28T09:39:55.334Z,99.99
2022-09-28T09:40:55.485Z,99.99
2022-09-28T09:41:55.540Z,99.99
2022-09-28T09:42:55.302Z,99.99
2022-09-28T09:43:55.288Z,99.83
2022-09-28T09:44:55.271Z,99.93
2022-09-28T09:45:55.330Z,99.99
2022-09-28T09:46:55.250Z,99.99
2022-09-28T09:47:55.234Z,99.99
2022-09-28T09:48:55.222Z,99.99
2022-09-28T09:49:55.204Z,99.99
2022-09-28T09:50:55.197Z,99.99
2022-09-28T09:51:55.193Z,99.99
2022-09-28T09:52:55.165Z,99.99
2022-09-28T09:53:55.154Z,99.99
2022-09-28T09:54:55.140Z,99.99
2022-09-28T09:55:55.163Z,99.99
2022-09-28T09:56:55.113Z,99.99
2022-09-28T09:57:55.096Z,99.99
2022-09-28T09:58:55.093Z,99.99
2022-09-28T09:59:55.079Z,99.99
2022-09-28T10:00:55.171Z,99.99
2022-09-28T10:01:55.064Z,99.99
2022-09-28T10:02:55.136Z,99.99
2022-09-28T10:03:55.018Z,99.99
2022-09-28T10:04:55.207Z,99.99
2022-09-28T10:05:54.999Z,99.52
2022-09-28T10:06:54.978Z,99.52
2022-09-28T10:07:54.970Z,99.52
2022-09-28T10:08:54.950Z,99.42
2022-09-28T10:09:54.942Z,99.01
2022-09-28T10:10:54.932Z,99.21
2022-09-28T10:11:54.912Z,99.52
2022-09-28T10:12:54.941Z,99.32
2022-09-28T10:13:54.885Z,99.01
2022-09-28T10:14:55.080Z,99.11
2022-09-28T10:15:54.864Z,99.11
2022-09-28T10:16:54.902Z,98.39
2022-09-28T10:17:54.860Z,97.99
2022-09-28T10:18:54.823Z,97.62
2022-09-28T10:19:54.814Z,97.31
2022-09-28T10:20:54.796Z,96.28
2022-09-28T10:21:54.783Z,96.59
2022-09-28T10:22:54.779Z,96.39
2022-09-28T10:23:54.762Z,97.00
2022-09-28T10:24:54.741Z,97.41
2022-09-28T10:25:54.733Z,97.62
2022-09-28T10:26:54.723Z,97.82
2022-09-28T10:27:54.701Z,97.45
2022-09-28T10:28:54.695Z,97.97
2022-09-28T10:29:54.700Z,98.54
2022-09-28T10:30:54.795Z,98.65
2022-09-28T10:31:54.660Z,98.85
2022-09-28T10:32:54.639Z,98.49
2022-09-28T10:33:54.650Z,98.54
2022-09-28T10:34:54.613Z,98.96
2022-09-28T10:35:54.596Z,99.47
2022-09-28T10:36:54.588Z,98.96
2022-09-28T10:37:54.596Z,99.26
2022-09-28T10:38:54.562Z,99.37
2022-09-28T10:39:54.547Z,99.26
2022-09-28T10:40:54.634Z,99.47
2022-09-28T10:41:54.528Z,99.37
2022-09-28T10:42:54.506Z,99.47
2022-09-28T10:43:58.033Z,99.67
2022-09-28T10:44:54.485Z,99.99
2022-09-28T10:45:54.562Z,99.99
2022-09-28T10:46:54.460Z,99.99
2022-09-28T10:47:54.439Z,99.99
2022-09-28T10:48:54.431Z,99.77
2022-09-28T10:49:54.458Z,99.67
2022-09-28T10:50:54.402Z,99.88
2022-09-28T10:51:54.395Z,99.99
2022-09-28T10:52:54.379Z,99.99
2022-09-28T10:53:54.363Z,99.93
2022-09-28T10:54:54.348Z,99.99
2022-09-28T10:55:54.346Z,99.99
2022-09-28T10:56:54.323Z,99.99
2022-09-28T10:57:54.308Z,99.99
2022-09-28T10:58:54.300Z,99.99
2022-09-28T10:59:54.282Z,98.80
2022-09-28T11:00:54.303Z,98.50
2022-09-28T11:01:54.254Z,98.80
2022-09-28T11:02:54.260Z,98.91
2022-09-28T11:03:54.233Z,98.70
2022-09-28T11:04:54.216Z,98.80
2022-09-28T11:05:54.223Z,98.50
2022-09-28T11:06:54.281Z,98.70
2022-09-28T11:07:54.180Z,99.01
2022-09-28T11:08:54.165Z,99.21
2022-09-28T11:09:54.160Z,99.16
2022-09-28T11:10:54.139Z,99.42
2022-09-28T11:11:54.131Z,99.21
2022-09-28T11:12:54.120Z,99.42
2022-09-28T11:13:54.095Z,99.83
2022-09-28T11:14:54.100Z,99.99
2022-09-28T11:15:54.067Z,99.99
2022-09-28T11:16:54.250Z,99.63
2022-09-28T11:17:54.051Z,98.70
2022-09-28T11:18:54.041Z,98.50
2022-09-28T11:19:54.027Z,98.29
2022-09-28T11:20:54.007Z,98.39
2022-09-28T11:21:54.004Z,98.70
2022-09-28T11:22:53.978Z,98.39
2022-09-28T11:23:53.971Z,98.08
2022-09-28T11:24:53.965Z,98.24
2022-09-28T11:25:53.939Z,98.70
2022-09-28T11:26:53.925Z,99.01
2022-09-28T11:27:53.913Z,99.11
2022-09-28T11:28:53.907Z,99.32
2022-09-28T11:29:53.889Z,99.01
2022-09-28T11:30:53.945Z,98.80
2022-09-28T11:31:53.862Z,98.80
2022-09-28T11:32:53.849Z,99.01
2022-09-28T11:33:53.832Z,98.60
2022-09-28T11:34:59.479Z,98.39
2022-09-28T11:35:54.835Z,98.29
2022-09-28T11:36:55.652Z,98.29
2022-09-28T11:37:53.805Z,98.60
2022-09-28T11:38:53.771Z,98.70
2022-09-28T11:39:53.756Z,99.01
2022-09-28T11:40:53.803Z,99.52
2022-09-28T11:41:53.734Z,99.73
2022-09-28T11:42:53.770Z,99.73
2022-09-28T11:43:53.702Z,99.73
2022-09-28T11:44:53.689Z,99.83
2022-09-28T11:45:53.768Z,99.93
2022-09-28T11:46:53.668Z,99.99
2022-09-28T11:47:53.659Z,99.99
2022-09-28T11:48:53.642Z,99.99
2022-09-28T11:49:53.628Z,99.83
2022-09-28T11:50:53.618Z,99.83
2022-09-28T11:51:53.594Z,99.52
2022-09-28T11:52:53.586Z,99.42
2022-09-28T11:53:53.801Z,99.42
2022-09-28T11:54:53.566Z,99.73
2022-09-28T11:55:53.541Z,99.99
2022-09-28T11:56:53.541Z,99.99
2022-09-28T11:57:53.525Z,99.99
2022-09-28T11:58:53.508Z,99.99
2022-09-28T11:59:53.530Z,99.99
2022-09-28T12:00:53.484Z,99.99
2022-09-28T12:01:53.470Z,99.99
2022-09-28T12:02:53.559Z,99.99
2022-09-28T12:03:53.446Z,99.99
2022-09-28T12:04:53.429Z,99.99
2022-09-28T12:05:53.419Z,99.99
2022-09-28T12:06:53.621Z,99.99
2022-09-28T12:07:53.397Z,99.99
2022-09-28T12:08:53.376Z,99.99
2022-09-28T12:09:53.591Z,99.99
2022-09-28T12:10:53.352Z,99.99
2022-09-28T12:11:53.336Z,99.93
2022-09-28T12:12:53.326Z,98.80
2022-09-28T12:13:53.318Z,98.91
2022-09-28T12:14:53.298Z,99.11
2022-09-28T12:16:22.971Z,99.01
2022-09-28T12:17:05.284Z,98.80
2022-09-28T12:17:54.406Z,97.72
2022-09-28T12:18:53.311Z,97.72
2022-09-28T12:19:53.221Z,98.03
2022-09-28T12:20:53.229Z,98.24
2022-09-28T12:21:53.216Z,98.33
2022-09-28T12:22:53.194Z,98.44
2022-09-28T12:23:53.183Z,98.44
2022-09-28T12:24:53.161Z,98.65
2022-09-28T12:25:53.181Z,98.85
2022-09-28T12:26:53.161Z,99.05
2022-09-28T12:27:53.120Z,99.26
2022-09-28T12:28:53.117Z,99.37
2022-09-28T12:29:53.115Z,99.16
2022-09-28T12:30:53.181Z,99.16
2022-09-28T12:31:53.071Z,98.90
2022-09-28T12:32:53.060Z,98.59
2022-09-28T12:33:53.053Z,98.90
2022-09-28T12:34:53.036Z,99.10
2022-09-28T12:35:53.070Z,99.37
2022-09-28T12:36:53.012Z,99.47
2022-09-28T12:37:54.488Z,99.47
2022-09-28T12:39:58.098Z,99.67
2022-09-28T12:40:53.028Z,99.77
2022-09-28T12:41:52.971Z,99.88
2022-09-28T12:42:52.989Z,99.99
2022-09-28T12:43:52.914Z,99.99
2022-09-28T12:44:55.906Z,99.99
2022-09-28T12:46:12.106Z,99.99
2022-09-28T12:46:54.059Z,99.99
2022-09-28T12:47:52.870Z,99.99
2022-09-28T12:49:21.633Z,99.99
2022-09-28T12:50:37.201Z,99.77
2022-09-28T12:50:57.499Z,99.77
2022-09-28T12:51:52.814Z,99.77
2022-09-28T12:52:52.806Z,99.47
2022-09-28T12:53:52.793Z,99.37